createdAt,value
2022-12-27T00:01:55.068Z,97193.28
2022-12-27T00:04:25.513Z,97187.53
2022-12-27T00:06:54.011Z,97181.28
2022-12-27T00:09:22.376Z,97185.44
2022-12-27T00:11:54.809Z,97185.22
2022-12-27T00:14:27.044Z,97190.75
2022-12-27T00:16:57.271Z,97199.41
2022-12-27T00:19:25.840Z,97214.03
2022-12-27T00:21:54.055Z,97213.94
2022-12-27T00:24:22.720Z,97203.97
2022-12-27T00:26:51.304Z,97212.44
2022-12-27T00:29:20.065Z,97220.69
2022-12-27T00:31:48.419Z,97237.22
2022-12-27T00:34:18.165Z,97236.38
2022-12-27T00:36:46.451Z,97232.44
2022-12-27T00:39:15.320Z,97233.03
2022-12-27T00:41:43.739Z,97236.88
2022-12-27T00:44:11.978Z,97244.03
2022-12-27T00:46:40.217Z,97244.03
2022-12-27T00:49:08.691Z,97238.78
2022-12-27T00:51:38.842Z,97248.03
2022-12-27T00:54:07.748Z,97247.44
2022-12-27T00:56:35.910Z,97255.31
2022-12-27T00:59:06.243Z,97253.47
2022-12-27T01:01:37.091Z,97252.81
2022-12-27T01:04:06.824Z,97245.59
2022-12-27T01:06:36.161Z,97237.78
2022-12-27T01:09:06.812Z,97251.91
2022-12-27T01:11:35.487Z,97253.72
2022-12-27T01:14:06.594Z,97267.44
2022-12-27T01:16:35.697Z,97272.28
2022-12-27T01:19:04.059Z,97273.25
2022-12-27T01:21:32.314Z,97272.22
2022-12-27T01:24:00.963Z,97272.03
2022-12-27T01:26:31.496Z,97281.53
2022-12-27T01:29:00.254Z,97290.22
2022-12-27T01:31:29.968Z,97296.16
2022-12-27T01:34:00.724Z,97303.03
2022-12-27T01:36:31.732Z,97311.31
2022-12-27T01:39:01.216Z,97305.28
2022-12-27T01:41:51.325Z,97306.28
2022-12-27T01:44:51.312Z,97306.44
2022-12-27T01:47:26.530Z,97319.31
2022-12-27T01:50:02.573Z,97325.59
2022-12-27T01:52:35.404Z,97341.81
2022-12-27T01:55:10.281Z,97338.50
2022-12-27T01:57:40.842Z,97341.78
2022-12-27T02:00:10.832Z,97333.03
2022-12-27T02:02:40.386Z,97349.47
2022-12-27T02:05:11.646Z,97357.91
2022-12-27T02:07:48.905Z,97365.03
2022-12-27T02:10:18.190Z,97380.84
2022-12-27T02:12:48.483Z,97384.81
2022-12-27T02:15:16.999Z,97382.34
2022-12-27T02:17:45.254Z,97392.72
2022-12-27T02:20:17.355Z,97385.63
2022-12-27T02:23:44.457Z,97397.81
2022-12-27T02:26:35.191Z,97396.94
2022-12-27T02:29:33.055Z,97410.75
2022-12-27T02:32:07.589Z,97407.06
2022-12-27T02:34:44.232Z,97411.56
2022-12-27T02:37:14.966Z,97407.91
2022-12-27T02:39:48.023Z,97412.34
2022-12-27T02:42:34.779Z,97413.91
2022-12-27T02:45:25.876Z,97414.09
2022-12-27T02:48:12.179Z,97419.81
2022-12-27T02:51:19.462Z,97417.69
2022-12-27T02:54:01.468Z,97406.03
2022-12-27T02:56:57.014Z,97411.19
2022-12-27T03:03:24.115Z,97418.06
2022-12-27T03:06:36.771Z,97416.50
2022-12-27T03:09:34.934Z,97417.59
2022-12-27T03:12:26.211Z,97423.69
2022-12-27T03:15:18.627Z,97431.03
2022-12-27T03:17:53.213Z,97433.53
2022-12-27T03:20:41.988Z,97435.91
2022-12-27T03:23:29.503Z,97447.13
2022-12-27T03:25:59.823Z,97458.72
2022-12-27T03:28:48.176Z,97469.06
2022-12-27T03:31:47.978Z,97464.75
2022-12-27T03:34:33.284Z,97460.66
2022-12-27T03:37:24.313Z,97466.25
2022-12-27T03:40:03.117Z,97471.69
2022-12-27T03:42:54.978Z,97468.97
2022-12-27T03:45:43.778Z,97482.00
2022-12-27T03:48:18.145Z,97485.56
2022-12-27T03:50:50.967Z,97485.53
2022-12-27T03:53:27.764Z,97489.69
2022-12-27T03:55:56.325Z,97490.34
2022-12-27T03:58:25.144Z,97492.28
2022-12-27T04:00:54.145Z,97500.81
2022-12-27T04:03:22.513Z,97496.69
2022-12-27T04:05:51.217Z,97497.50
2022-12-27T04:08:38.755Z,97504.41
2022-12-27T04:11:24.507Z,97503.53
2022-12-27T04:14:10.283Z,97503.50
2022-12-27T04:16:56.115Z,97512.31
2022-12-27T04:19:41.926Z,97518.38
2022-12-27T04:22:27.775Z,97515.78
2022-12-27T04:25:14.770Z,97513.25
2022-12-27T04:28:00.936Z,97524.41
2022-12-27T04:30:47.327Z,97527.84
2022-12-27T04:33:33.684Z,97523.56
2022-12-27T04:36:06.132Z,97532.13
2022-12-27T04:38:35.205Z,97530.41
2022-12-27T04:41:22.210Z,97530.41
2022-12-27T04:44:07.803Z,97530.38
2022-12-27T04:46:54.409Z,97530.38
2022-12-27T04:49:44.395Z,97538.97
2022-12-27T04:52:33.446Z,97531.25
2022-12-27T04:55:13.319Z,97544.94
2022-12-27T04:57:43.339Z,97527.81
2022-12-27T05:00:30.273Z,97539.81
2022-12-27T05:02:59.686Z,97531.25
2022-12-27T05:05:28.256Z,97551.78
2022-12-27T05:08:16.229Z,97544.06
2022-12-27T05:11:02.035Z,97542.41
2022-12-27T05:13:49.931Z,97554.34
2022-12-27T05:16:18.489Z,97556.06
2022-12-27T05:18:46.943Z,97567.19
2022-12-27T05:21:15.158Z,97558.59
2022-12-27T05:24:05.339Z,97556.06
2022-12-27T05:26:34.830Z,97572.34
2022-12-27T05:29:04.299Z,97559.50
2022-12-27T05:31:33.338Z,97575.78
2022-12-27T05:34:02.768Z,97576.59
2022-12-27T05:36:30.994Z,97576.66
2022-12-27T05:38:59.938Z,97586.00
2022-12-27T05:41:28.386Z,97592.03
2022-12-27T05:43:57.976Z,97587.66
2022-12-27T05:46:29.901Z,97604.84
2022-12-27T05:48:58.470Z,97608.31
2022-12-27T05:51:27.295Z,97615.97
2022-12-27T05:53:55.881Z,97616.81
2022-12-27T05:56:24.131Z,97618.41
2022-12-27T05:58:54.292Z,97627.97
2022-12-27T06:01:22.985Z,97635.63
2022-12-27T06:03:52.551Z,97632.31
2022-12-27T06:06:20.875Z,97638.25
2022-12-27T06:08:49.810Z,97633.16
2022-12-27T06:11:20.165Z,97639.94
2022-12-27T06:13:52.046Z,97639.88
2022-12-27T06:16:21.812Z,97640.81
2022-12-27T06:18:50.626Z,97646.06
2022-12-27T06:21:22.672Z,97650.34
2022-12-27T06:23:51.758Z,97652.94
2022-12-27T06:26:23.100Z,97657.19
2022-12-27T06:28:52.709Z,97657.22
2022-12-27T06:31:22.098Z,97655.53
2022-12-27T06:33:52.396Z,97650.38
2022-12-27T06:36:23.897Z,97653.78
2022-12-27T06:38:51.986Z,97654.63
2022-12-27T06:41:21.243Z,97664.09
2022-12-27T06:43:54.866Z,97663.19
2022-12-27T06:46:24.445Z,97664.03
2022-12-27T06:48:53.658Z,97666.66
2022-12-27T06:51:23.595Z,97672.59
2022-12-27T06:53:52.613Z,97676.91
2022-12-27T06:56:23.036Z,97676.06
2022-12-27T06:58:52.725Z,97665.75
2022-12-27T07:01:23.502Z,97674.34
2022-12-27T07:03:53.457Z,97666.59
2022-12-27T07:06:25.124Z,97670.84
2022-12-27T07:08:54.112Z,97676.09
2022-12-27T07:11:23.385Z,97676.88
2022-12-27T07:13:55.710Z,97679.50
2022-12-27T07:16:25.955Z,97686.34
2022-12-27T07:18:56.513Z,97694.84
2022-12-27T07:21:28.409Z,97698.31
2022-12-27T07:23:57.200Z,97705.19
2022-12-27T07:26:28.677Z,97708.59
2022-12-27T07:28:58.622Z,97707.78
2022-12-27T07:31:29.859Z,97717.25
2022-12-27T07:33:59.392Z,97730.13
2022-12-27T07:36:33.187Z,97735.22
2022-12-27T07:39:01.598Z,97742.13
2022-12-27T07:41:29.779Z,97743.84
2022-12-27T07:44:01.947Z,97748.13
2022-12-27T07:46:30.958Z,97760.13
2022-12-27T07:49:00.194Z,97761.84
2022-12-27T07:51:30.268Z,97754.81
2022-12-27T07:53:58.487Z,97751.88
2022-12-27T07:56:28.880Z,97754.25
2022-12-27T07:58:59.249Z,97747.88
2022-12-27T08:01:30.299Z,97766.31
2022-12-27T08:03:59.190Z,97768.00
2022-12-27T08:06:33.046Z,97763.09
2022-12-27T08:09:04.344Z,97781.59
2022-12-27T08:11:32.637Z,97778.16
2022-12-27T08:14:00.972Z,97777.28
2022-12-27T08:16:29.737Z,97784.19
2022-12-27T08:18:59.868Z,97780.72
2022-12-27T08:21:33.735Z,97772.13
2022-12-27T08:24:02.777Z,97777.31
2022-12-27T08:26:31.043Z,97787.59
2022-12-27T08:28:59.580Z,97788.44
2022-12-27T08:31:27.948Z,97789.28
2022-12-27T08:33:58.807Z,97784.13
2022-12-27T08:36:54.007Z,97784.91
2022-12-27T08:39:18.328Z,97795.28
2022-12-27T08:41:47.882Z,97794.44
2022-12-27T08:44:16.582Z,97797.75
2022-12-27T08:46:44.784Z,97810.75
2022-12-27T08:49:19.331Z,97815.03
2022-12-27T08:51:47.657Z,97813.34
2022-12-27T08:54:17.268Z,97811.53
2022-12-27T08:56:45.751Z,97811.59
2022-12-27T08:59:14.052Z,97820.22
2022-12-27T09:01:42.908Z,97817.63
2022-12-27T09:04:11.340Z,97818.47
2022-12-27T09:06:42.263Z,97824.47
2022-12-27T09:09:10.747Z,97816.75
2022-12-27T09:11:40.666Z,97815.94
2022-12-27T09:14:10.822Z,97820.19
2022-12-27T09:16:39.978Z,97815.91
2022-12-27T09:19:08.733Z,97814.16
2022-12-27T09:21:36.999Z,97824.47
2022-12-27T09:24:06.042Z,97823.63
2022-12-27T09:26:34.686Z,97824.47
2022-12-27T09:29:05.515Z,97820.13
2022-12-27T09:31:34.711Z,97818.31
2022-12-27T09:34:03.334Z,97811.38
2022-12-27T09:36:32.047Z,97816.72
2022-12-27T09:39:01.515Z,97816.56
2022-12-27T09:42:34.180Z,97822.53
2022-12-27T09:44:39.871Z,97816.63
2022-12-27T09:47:14.009Z,97811.22
2022-12-27T09:49:46.261Z,97795.13
2022-12-27T09:52:18.988Z,97811.25
2022-12-27T09:55:04.446Z,97811.50
2022-12-27T09:57:38.819Z,97813.28
2022-12-27T10:00:16.528Z,97803.00
2022-12-27T10:02:46.079Z,97808.16
2022-12-27T10:05:22.624Z,97804.72
2022-12-27T10:08:04.754Z,97802.13
2022-12-27T10:10:43.128Z,97797.75
2022-12-27T10:13:33.387Z,97792.50
2022-12-27T10:16:18.290Z,97797.63
2022-12-27T10:19:04.255Z,97794.13
2022-12-27T10:21:38.767Z,97798.22
2022-12-27T10:24:20.412Z,97790.78
2022-12-27T10:26:48.935Z,97794.34
2022-12-27T10:29:22.451Z,97789.25
2022-12-27T10:31:52.630Z,97785.78
2022-12-27T10:34:24.702Z,97780.56
2022-12-27T10:36:54.463Z,97777.94
2022-12-27T10:39:28.413Z,97783.94
2022-12-27T10:42:03.468Z,97783.88
2022-12-27T10:44:32.065Z,97780.56
2022-12-27T10:47:02.248Z,97789.22
2022-12-27T10:49:32.747Z,97789.13
2022-12-27T10:52:10.113Z,97778.78
2022-12-27T10:54:52.357Z,97783.13
2022-12-27T10:57:28.047Z,97790.97
2022-12-27T11:00:18.990Z,97780.56
2022-12-27T11:02:53.243Z,97776.25
2022-12-27T11:05:23.592Z,97780.66
2022-12-27T11:07:52.915Z,97778.97
2022-12-27T11:10:23.957Z,97771.06
2022-12-27T11:13:00.277Z,97777.09
2022-12-27T11:15:30.228Z,97771.94
2022-12-27T11:18:03.290Z,97772.84
2022-12-27T11:20:35.469Z,97782.34
2022-12-27T11:23:07.276Z,97773.69
2022-12-27T11:25:37.807Z,97778.84
2022-12-27T11:28:09.069Z,97778.78
2022-12-27T11:30:40.563Z,97782.22
2022-12-27T11:33:25.060Z,97784.00
2022-12-27T11:35:57.082Z,97781.50
2022-12-27T11:38:27.527Z,97789.16
2022-12-27T11:41:03.505Z,97782.28
2022-12-27T11:43:36.980Z,97778.69
2022-12-27T11:46:13.195Z,97771.91
2022-12-27T11:48:46.781Z,97781.41
2022-12-27T11:51:41.789Z,97789.94
2022-12-27T11:54:27.405Z,97777.91
2022-12-27T11:57:12.509Z,97783.88
2022-12-27T11:59:55.853Z,97774.34
2022-12-27T12:02:41.056Z,97763.97
2022-12-27T12:05:44.181Z,97774.16
2022-12-27T12:08:28.207Z,97765.50
2022-12-27T12:11:12.013Z,97759.66
2022-12-27T12:14:13.011Z,97763.91
2022-12-27T12:16:57.502Z,97762.09
2022-12-27T12:19:43.058Z,97758.78
2022-12-27T12:22:29.406Z,97765.75
2022-12-27T12:25:29.067Z,97769.13
2022-12-27T12:28:56.267Z,97769.22
2022-12-27T12:31:29.759Z,97769.19
2022-12-27T12:34:15.889Z,97769.19
2022-12-27T12:37:15.734Z,97773.59
2022-12-27T12:40:05.422Z,97771.00
2022-12-27T12:42:42.240Z,97778.59
2022-12-27T12:45:38.042Z,97785.63
2022-12-27T12:48:25.724Z,97786.34
2022-12-27T12:51:15.114Z,97789.09
2022-12-27T12:53:55.974Z,97777.84
2022-12-27T12:56:45.772Z,97779.50
2022-12-27T12:59:36.938Z,97783.78
2022-12-27T13:02:26.899Z,97789.50
2022-12-27T13:05:16.973Z,97795.66
2022-12-27T13:07:57.925Z,97795.75
2022-12-27T13:10:53.084Z,97788.88
2022-12-27T13:13:33.034Z,97788.97
2022-12-27T13:16:13.871Z,97787.06
2022-12-27T13:18:50.229Z,97788.00
2022-12-27T13:21:31.636Z,97794.16
2022-12-27T13:24:08.658Z,97794.94
2022-12-27T13:26:49.915Z,97792.19
2022-12-27T13:30:06.046Z,97797.47
2022-12-27T13:32:49.667Z,97792.34
2022-12-27T13:35:31.870Z,97807.03
2022-12-27T13:38:16.182Z,97805.25
2022-12-27T13:41:04.565Z,97808.88
2022-12-27T13:43:53.054Z,97810.47
2022-12-27T13:46:44.728Z,97816.41
2022-12-27T13:49:31.622Z,97816.53
2022-12-27T13:52:13.301Z,97811.34
2022-12-27T13:55:07.018Z,97811.41
2022-12-27T13:58:04.354Z,97807.78
2022-12-27T14:00:38.445Z,97807.16
2022-12-27T14:03:36.859Z,97807.94
2022-12-27T14:06:40.160Z,97813.09
2022-12-27T14:09:42.035Z,97818.19
2022-12-27T14:12:41.858Z,97823.34
2022-12-27T14:15:16.572Z,97830.34
2022-12-27T14:17:54.971Z,97827.69
2022-12-27T14:20:41.633Z,97823.38
2022-12-27T14:23:27.339Z,97820.81
2022-12-27T14:26:26.146Z,97833.75
2022-12-27T14:29:29.441Z,97821.63
2022-12-27T14:32:34.079Z,97827.72
2022-12-27T14:35:50.613Z,97832.00
2022-12-27T14:38:43.661Z,97833.75
2022-12-27T14:41:47.682Z,97841.44
2022-12-27T14:44:53.081Z,97845.75
2022-12-27T14:47:50.480Z,97849.28
2022-12-27T14:50:48.382Z,97851.78
2022-12-27T14:53:43.860Z,97850.00
2022-12-27T14:56:26.520Z,97857.81
2022-12-27T14:59:07.322Z,97855.25
2022-12-27T15:01:55.153Z,97865.63
2022-12-27T15:04:51.928Z,97868.16
2022-12-27T15:07:38.995Z,97869.84
2022-12-27T15:10:16.828Z,97869.03
2022-12-27T15:12:53.276Z,97870.75
2022-12-27T15:15:31.071Z,97872.41
2022-12-27T15:21:05.980Z,97870.56
2022-12-27T15:23:43.856Z,97870.56
2022-12-27T15:26:22.676Z,97880.09
2022-12-27T15:29:06.504Z,97880.91
2022-12-27T15:31:47.819Z,97884.28
2022-12-27T15:34:38.403Z,97881.66
2022-12-27T15:37:07.276Z,97876.50
2022-12-27T15:40:02.212Z,97878.22
2022-12-27T15:42:51.080Z,97874.94
2022-12-27T15:45:34.672Z,97873.22
2022-12-27T15:48:34.578Z,97873.06
2022-12-27T15:51:12.607Z,97875.72
2022-12-27T15:53:57.435Z,97869.59
2022-12-27T15:56:57.062Z,97870.59
2022-12-27T15:59:36.984Z,97859.31
2022-12-27T16:02:29.336Z,97881.00
2022-12-27T16:05:02.501Z,97874.13
2022-12-27T16:07:47.584Z,97874.97
2022-12-27T16:10:52.550Z,97870.78
2022-12-27T16:13:49.994Z,97864.66
2022-12-27T16:16:55.057Z,97861.31
2022-12-27T16:19:40.717Z,97854.38
2022-12-27T16:22:24.678Z,97854.44
2022-12-27T16:24:56.209Z,97860.44
2022-12-27T16:27:31.743Z,97870.75
2022-12-27T16:30:01.892Z,97872.53
2022-12-27T16:32:30.247Z,97877.69
2022-12-27T16:35:15.137Z,97877.66
2022-12-27T16:37:46.800Z,97878.50
2022-12-27T16:40:38.065Z,97875.06
2022-12-27T16:43:46.832Z,97868.16
2022-12-27T16:46:39.042Z,97868.25
2022-12-27T16:49:40.252Z,97871.72
2022-12-27T16:52:27.309Z,97869.13
2022-12-27T16:55:03.955Z,97876.88
2022-12-27T16:57:40.393Z,97872.56
2022-12-27T17:00:36.637Z,97865.72
2022-12-27T17:03:32.702Z,97863.97
2022-12-27T17:06:34.063Z,97863.97
2022-12-27T17:09:31.150Z,97856.25
2022-12-27T17:12:20.860Z,97857.97
2022-12-27T17:14:54.923Z,97850.25
2022-12-27T17:17:24.656Z,97849.38
2022-12-27T17:20:03.181Z,97849.38
2022-12-27T17:22:35.307Z,97848.53
2022-12-27T17:25:05.453Z,97859.63
2022-12-27T17:27:52.821Z,97864.78
2022-12-27T17:30:22.745Z,97869.06
2022-12-27T17:33:06.471Z,97863.09
2022-12-27T17:35:52.879Z,97870.84
2022-12-27T17:38:31.731Z,97872.50
2022-12-27T17:41:15.455Z,97883.66
2022-12-27T17:47:03.394Z,97884.47
2022-12-27T17:49:33.284Z,97878.47
2022-12-27T17:52:20.659Z,97878.50
2022-12-27T17:55:06.992Z,97873.34
2022-12-27T17:57:52.733Z,97882.78
2022-12-27T18:00:24.050Z,97876.81
2022-12-27T18:02:55.021Z,97883.66
2022-12-27T18:05:29.393Z,97888.78
2022-12-27T18:08:22.168Z,97898.25
2022-12-27T18:10:51.209Z,97891.38
2022-12-27T18:13:24.433Z,97888.81
2022-12-27T18:15:53.620Z,97895.69
2022-12-27T18:18:27.943Z,97893.97
2022-12-27T18:20:58.257Z,97892.22
2022-12-27T18:23:28.138Z,97893.97
2022-12-27T18:26:03.080Z,97902.53
2022-12-27T18:28:34.331Z,97902.47
2022-12-27T18:31:09.800Z,97901.63
2022-12-27T18:33:43.385Z,97899.91
2022-12-27T18:36:20.852Z,97897.28
2022-12-27T18:38:56.840Z,97894.63
2022-12-27T18:41:25.846Z,97892.13
2022-12-27T18:44:01.018Z,97892.97
2022-12-27T18:46:32.603Z,97891.16
2022-12-27T18:49:02.067Z,97894.63
2022-12-27T18:51:33.321Z,97898.84
2022-12-27T18:54:03.382Z,97893.91
2022-12-27T18:56:35.201Z,97892.88
2022-12-27T18:59:07.617Z,97896.31
2022-12-27T19:01:41.956Z,97892.88
2022-12-27T19:04:29.070Z,97890.28
2022-12-27T19:07:06.651Z,97892.06
2022-12-27T19:09:40.367Z,97884.34
2022-12-27T19:12:18.559Z,97884.31
2022-12-27T19:14:47.784Z,97892.16
2022-12-27T19:17:19.774Z,97890.38
2022-12-27T19:19:50.095Z,97884.41
2022-12-27T19:22:36.031Z,97881.81
2022-12-27T19:25:12.265Z,97880.06
2022-12-27T19:27:40.822Z,97883.44
2022-12-27T19:30:32.051Z,97878.41
2022-12-27T19:33:03.163Z,97881.75
2022-12-27T19:35:32.505Z,97885.25
2022-12-27T19:38:02.608Z,97886.09
2022-12-27T19:40:32.832Z,97892.13
2022-12-27T19:43:01.128Z,97888.72
2022-12-27T19:45:30.176Z,97894.72
2022-12-27T19:47:58.353Z,97890.53
2022-12-27T19:50:26.736Z,97901.59
2022-12-27T19:52:55.328Z,97902.41
2022-12-27T19:55:26.977Z,97893.88
2022-12-27T19:57:56.872Z,97903.22
2022-12-27T20:00:25.322Z,97889.66
2022-12-27T20:02:53.688Z,97893.88
2022-12-27T20:06:11.632Z,97895.66
2022-12-27T20:08:23.873Z,97902.50
2022-12-27T20:10:52.273Z,97894.78
2022-12-27T20:13:22.592Z,97891.38
2022-12-27T20:15:51.958Z,97887.91
2022-12-27T20:18:20.357Z,97882.81
2022-12-27T20:20:49.345Z,97878.53
2022-12-27T20:23:18.091Z,97879.38
2022-12-27T20:25:49.046Z,97879.41
2022-12-27T20:28:18.884Z,97878.56
2022-12-27T20:30:48.698Z,97874.25
2022-12-27T20:33:17.301Z,97872.53
2022-12-27T20:35:45.918Z,97869.94
2022-12-27T20:38:14.085Z,97867.34
2022-12-27T20:40:42.731Z,97857.84
2022-12-27T20:43:11.707Z,97857.91
2022-12-27T20:45:40.406Z,97851.09
2022-12-27T20:48:10.186Z,97858.81
2022-12-27T20:50:38.384Z,97851.09
2022-12-27T20:53:07.699Z,97851.84
2022-12-27T20:55:36.137Z,97853.63
2022-12-27T20:58:04.527Z,97853.59
2022-12-27T21:00:32.817Z,97857.88
2022-12-27T21:03:01.349Z,97862.19
2022-12-27T21:05:31.574Z,97853.56
2022-12-27T21:08:00.287Z,97858.75
2022-12-27T21:10:28.914Z,97852.69
2022-12-27T21:12:57.214Z,97847.59
2022-12-27T21:15:25.511Z,97844.94
2022-12-27T21:17:54.030Z,97845.81
2022-12-27T21:20:22.350Z,97843.19
2022-12-27T21:22:52.401Z,97844.06
2022-12-27T21:25:20.486Z,97829.50
2022-12-27T21:27:49.197Z,97838.19
2022-12-27T21:30:17.915Z,97842.34
2022-12-27T21:32:46.902Z,97843.19
2022-12-27T21:35:15.159Z,97832.94
2022-12-27T21:37:43.578Z,97834.72
2022-12-27T21:40:14.415Z,97832.97
2022-12-27T21:42:42.895Z,97829.50
2022-12-27T21:45:12.407Z,97828.72
2022-12-27T21:47:40.717Z,97825.25
2022-12-27T21:50:09.893Z,97826.13
2022-12-27T21:52:38.486Z,97832.16
2022-12-27T21:55:07.454Z,97828.78
2022-12-27T21:57:37.101Z,97821.03
2022-12-27T22:00:06.406Z,97820.19
2022-12-27T22:02:35.086Z,97818.47
2022-12-27T22:05:03.861Z,97818.47
2022-12-27T22:07:32.730Z,97816.75
2022-12-27T22:10:01.098Z,97812.44
2022-12-27T22:12:29.512Z,97809.00
2022-12-27T22:14:59.496Z,97813.28
2022-12-27T22:17:27.890Z,97806.44
2022-12-27T22:19:56.473Z,97812.44
2022-12-27T22:22:24.848Z,97809.91
2022-12-27T22:24:52.974Z,97810.69
2022-12-27T22:27:21.173Z,97803.03
2022-12-27T22:29:49.432Z,97809.84
2022-12-27T22:32:19.260Z,97800.44
2022-12-27T22:34:47.349Z,97801.28
2022-12-27T22:37:15.767Z,97802.97
2022-12-27T22:39:44.266Z,97804.66
2022-12-27T22:42:13.296Z,97801.25
2022-12-27T22:44:43.830Z,97801.25
2022-12-27T22:47:28.308Z,97802.94
2022-12-27T22:49:58.520Z,97795.25
2022-12-27T22:52:27.193Z,97796.13
2022-12-27T22:55:06.079Z,97786.63
2022-12-27T22:57:35.939Z,97798.66
2022-12-27T23:00:07.247Z,97790.16
2022-12-27T23:02:35.871Z,97808.13
2022-12-27T23:05:06.767Z,97803.00
2022-12-27T23:08:03.530Z,97806.41
2022-12-27T23:10:24.237Z,97805.53
2022-12-27T23:12:52.311Z,97804.63
2022-12-27T23:15:20.681Z,97813.22
2022-12-27T23:17:49.034Z,97800.41
2022-12-27T23:20:19.073Z,97804.69
2022-12-27T23:22:47.487Z,97796.13
2022-12-27T23:25:16.005Z,97805.50
2022-12-27T23:27:44.576Z,97807.31
2022-12-27T23:30:14.333Z,97799.53
2022-12-27T23:32:42.845Z,97796.16
2022-12-27T23:35:11.304Z,97798.78
2022-12-27T23:37:40.801Z,97798.75
2022-12-27T23:40:10.408Z,97784.16
2022-12-27T23:42:38.552Z,97785.84
2022-12-27T23:45:08.247Z,97787.59
2022-12-27T23:47:36.458Z,97780.69
2022-12-27T23:50:05.624Z,97781.56
2022-12-27T23:52:33.817Z,97772.03
2022-12-27T23:55:03.543Z,97760.84
2022-12-27T23:57:32.126Z,97760.88
